Time;durP1;ratioP1;P1;durP2;ratioP2;P2;SDS_P1;SDS_P2;PMS_P1;PMS_P2;Temp;Humidity;BMP_temperature;BMP_pressure;BME280_temperature;BME280_humidity;BME280_pressure;Samples;Min_cycle;Max_cycle;Signal;HPM_P1;HPM_P2
2021/06/27 00:01:50;;;;;;;9.75;3.72;;;;;;;25.07;36.06;102131.66;5112228;28;20032;-78
2021/06/27 00:04:17;;;;;;;9.80;3.97;;;;;;;25.04;36.24;102135.22;5114638;28;20051;-79
2021/06/27 00:06:44;;;;;;;11.43;3.47;;;;;;;24.97;35.96;102135.09;5098066;28;20024;-79
2021/06/27 00:09:10;;;;;;;8.23;3.47;;;;;;;24.93;36.16;102128.63;5116396;28;20032;-79
2021/06/27 00:11:36;;;;;;;13.30;3.42;;;;;;;24.92;36.16;102130.63;5115877;28;20151;-79
2021/06/27 00:14:03;;;;;;;10.10;4.43;;;;;;;24.91;36.06;102129.03;5116285;28;20056;-80
2021/06/27 00:16:31;;;;;;;8.95;3.75;;;;;;;24.85;36.21;102133.31;5115840;28;20044;-80
2021/06/27 00:18:58;;;;;;;9.10;3.88;;;;;;;24.85;36.46;102133.31;5097852;28;20126;-79
2021/06/27 00:21:24;;;;;;;8.57;3.83;;;;;;;24.77;36.11;102126.00;5116115;28;20385;-80
2021/06/27 00:23:50;;;;;;;9.88;4.15;;;;;;;24.79;36.54;102123.66;5116130;28;20106;-79
2021/06/27 00:26:19;;;;;;;11.25;4.65;;;;;;;24.78;36.10;102124.81;5097398;28;20502;-80
2021/06/27 00:28:45;;;;;;;5.90;3.97;;;;;;;24.77;36.18;102116.81;5097658;28;20035;-80
2021/06/27 00:31:11;;;;;;;5.65;3.60;;;;;;;24.75;35.93;102125.59;5097385;28;20424;-81
2021/06/27 00:33:36;;;;;;;5.50;3.58;;;;;;;24.70;35.73;102128.69;5097653;28;20389;-80
2021/06/27 00:36:04;;;;;;;4.90;2.63;;;;;;;24.63;35.72;102118.22;5097237;28;20023;-79
2021/06/27 00:38:29;;;;;;;6.00;3.70;;;;;;;24.57;35.66;102124.53;5115295;28;20058;-79
2021/06/27 00:40:55;;;;;;;9.82;4.07;;;;;;;24.51;35.89;102124.03;5097509;28;20118;-80
2021/06/27 00:43:22;;;;;;;5.65;4.30;;;;;;;24.47;35.64;102113.97;5115840;28;20106;-81
2021/06/27 00:45:48;;;;;;;7.40;5.10;;;;;;;24.39;35.95;102121.44;5097368;28;20035;-79
2021/06/27 00:48:14;;;;;;;9.48;4.63;;;;;;;24.32;35.64;102126.88;5115666;28;20031;-80
2021/06/27 00:50:44;;;;;;;10.00;5.32;;;;;;;24.22;35.93;102114.34;5115617;28;20055;-80
2021/06/27 00:53:10;;;;;;;8.95;5.07;;;;;;;24.17;35.82;102123.03;5115575;28;20024;-79
2021/06/27 00:55:37;;;;;;;7.55;5.03;;;;;;;24.16;35.87;102117.81;5115536;28;20110;-80
2021/06/27 00:58:03;;;;;;;11.10;5.35;;;;;;;24.08;35.97;102112.13;5115304;28;20027;-81
2021/06/27 01:00:32;;;;;;;9.23;5.60;;;;;;;24.03;35.59;102106.03;5115476;28;20019;-79
2021/06/27 01:02:59;;;;;;;7.53;5.45;;;;;;;23.98;35.78;102112.75;5115394;28;20016;-81
2021/06/27 01:05:28;;;;;;;8.85;5.93;;;;;;;23.90;35.59;102105.44;5097142;28;20427;-79
2021/06/27 01:07:55;;;;;;;10.40;7.37;;;;;;;23.86;35.60;102100.94;5115293;28;20024;-79
2021/06/27 01:10:20;;;;;;;9.82;6.50;;;;;;;23.79;35.52;102108.00;5115135;28;20020;-80
2021/06/27 01:12:46;;;;;;;13.05;7.80;;;;;;;23.73;35.81;102109.50;5115243;28;20156;-79
2021/06/27 01:15:13;;;;;;;8.95;5.72;;;;;;;23.73;35.67;102100.34;5096711;28;20023;-80
2021/06/27 01:17:40;;;;;;;10.90;7.15;;;;;;;23.70;35.74;102101.88;5114721;28;20043;-80
2021/06/27 01:20:12;;;;;;;7.63;6.82;;;;;;;23.65;35.50;102098.56;5115142;28;20027;-79
2021/06/27 01:22:38;;;;;;;8.63;6.60;;;;;;;23.60;35.47;102096.91;5115011;28;20119;-79
2021/06/27 01:25:06;;;;;;;11.00;6.93;;;;;;;23.52;35.69;102084.75;5114993;28;20031;-80
2021/06/27 01:27:32;;;;;;;8.05;6.32;;;;;;;23.55;35.25;102088.78;5096652;28;20426;-81
2021/06/27 01:29:58;;;;;;;9.93;6.00;;;;;;;23.50;35.52;102087.13;5114725;28;20030;-79
2021/06/27 01:32:24;;;;;;;8.98;6.00;;;;;;;23.39;35.39;102093.66;5114869;28;20028;-80
2021/06/27 01:34:50;;;;;;;7.28;5.60;;;;;;;23.40;35.49;102084.09;5114767;28;20022;-80
2021/06/27 01:37:17;;;;;;;11.05;5.97;;;;;;;23.36;35.47;102083.25;5114574;28;20594;-79
2021/06/27 01:39:42;;;;;;;10.98;6.40;;;;;;;23.33;35.19;102087.56;5096400;28;20054;-79
2021/06/27 01:42:08;;;;;;;7.40;5.80;;;;;;;23.28;35.62;102082.31;5114569;28;20098;-80
2021/06/27 01:44:35;;;;;;;8.43;5.70;;;;;;;23.26;35.39;102082.63;5114603;28;20080;-79
2021/06/27 01:47:01;;;;;;;8.27;5.43;;;;;;;23.24;35.36;102090.56;5114550;28;20030;-80
2021/06/27 01:49:27;;;;;;;7.65;5.28;;;;;;;23.21;35.21;102085.75;5114465;28;20031;-80
2021/06/27 01:51:53;;;;;;;7.47;5.88;;;;;;;23.17;35.34;102082.06;5114421;28;20023;-79
2021/06/27 01:54:19;;;;;;;7.38;5.97;;;;;;;23.17;35.20;102086.84;5096071;28;20012;-79
2021/06/27 01:56:44;;;;;;;7.07;5.18;;;;;;;23.14;35.17;102087.59;5114182;28;20354;-80
2021/06/27 01:59:12;;;;;;;6.60;5.60;;;;;;;23.11;35.17;102085.50;5114167;28;20378;-79
2021/06/27 02:01:39;;;;;;;7.00;5.22;;;;;;;23.09;35.07;102076.72;5114373;28;20058;-79
2021/06/27 02:04:06;;;;;;;7.97;5.82;;;;;;;23.03;34.97;102081.75;5114129;28;20023;-80
2021/06/27 02:06:37;;;;;;;7.00;5.38;;;;;;;22.98;34.99;102085.66;5114182;28;20022;-80
2021/06/27 02:09:07;;;;;;;7.78;5.47;;;;;;;22.94;35.14;102079.19;5114047;28;20427;-80
2021/06/27 02:11:32;;;;;;;16.30;6.47;;;;;;;23.01;34.95;102077.72;5114026;28;20102;-79
2021/06/27 02:13:58;;;;;;;8.82;5.57;;;;;;;22.95;35.08;102080.00;5113954;28;20104;-79
2021/06/27 02:16:24;;;;;;;8.25;5.28;;;;;;;22.92;35.02;102083.53;5095289;28;20586;-80
2021/06/27 02:18:51;;;;;;;8.20;4.88;;;;;;;22.91;35.03;102081.91;5113930;28;20076;-79
2021/06/27 02:21:29;;;;;;;11.57;5.57;;;;;;;22.84;35.18;102074.16;5113793;28;20023;-79
2021/06/27 02:23:56;;;;;;;9.65;5.90;;;;;;;22.91;35.01;102070.78;5113756;28;20035;-79
2021/06/27 02:26:24;;;;;;;7.70;4.93;;;;;;;22.84;35.03;102067.78;5094890;28;20023;-80
2021/06/27 02:28:50;;;;;;;9.80;5.25;;;;;;;22.83;35.25;102066.19;5113679;28;20024;-79
2021/06/27 02:31:17;;;;;;;9.10;5.57;;;;;;;22.84;35.41;102065.00;5113309;28;20114;-80
2021/06/27 02:33:43;;;;;;;10.65;5.50;;;;;;;22.89;34.97;102064.72;5113565;28;20059;-79
2021/06/27 02:36:09;;;;;;;9.07;4.78;;;;;;;22.79;35.11;102068.06;5113525;28;20389;-80
2021/06/27 02:38:36;;;;;;;8.73;5.00;;;;;;;22.74;35.03;102060.00;5094901;28;20031;-80
2021/06/27 02:41:02;;;;;;;9.43;5.18;;;;;;;22.70;35.14;102066.31;5113496;28;20089;-80
2021/06/27 02:43:28;;;;;;;8.80;4.95;;;;;;;22.71;34.92;102067.91;5113469;28;20028;-79
2021/06/27 02:45:54;;;;;;;9.23;4.80;;;;;;;22.68;34.95;102065.88;5113409;28;20140;-80
2021/06/27 02:48:19;;;;;;;11.02;5.07;;;;;;;22.70;35.22;102057.94;5113472;28;20023;-79
2021/06/27 02:50:45;;;;;;;7.93;4.78;;;;;;;22.64;35.07;102053.81;5094769;28;20031;-79
2021/06/27 02:53:11;;;;;;;7.40;4.10;;;;;;;22.65;35.04;102049.84;5113256;28;20027;-79
2021/06/27 02:55:37;;;;;;;6.32;4.82;;;;;;;22.58;34.98;102052.47;5113299;28;20032;-79
2021/06/27 02:58:03;;;;;;;9.73;5.38;;;;;;;22.54;35.10;102061.94;5113178;28;20027;-79
2021/06/27 03:00:29;;;;;;;16.92;4.60;;;;;;;22.52;35.01;102061.47;5113208;28;20085;-80
2021/06/27 03:02:56;;;;;;;8.35;5.47;;;;;;;22.48;34.94;102078.13;5113143;28;20053;-79
2021/06/27 03:05:22;;;;;;;9.40;4.82;;;;;;;22.47;35.14;102072.91;5113073;28;20020;-80
2021/06/27 03:07:48;;;;;;;10.48;5.65;;;;;;;22.43;34.91;102076.41;5113026;28;20043;-79
2021/06/27 03:10:16;;;;;;;11.52;5.57;;;;;;;22.38;35.05;102073.91;5113044;28;20484;-80
2021/06/27 03:12:52;;;;;;;10.63;6.28;;;;;;;22.33;34.91;102070.59;5113064;28;20042;-79
2021/06/27 03:15:19;;;;;;;7.43;4.97;;;;;;;22.31;35.03;102075.72;5094757;28;20027;-79
2021/06/27 03:17:46;;;;;;;6.75;5.43;;;;;;;22.23;34.92;102071.16;5112693;28;20055;-79
2021/06/27 03:20:13;;;;;;;10.80;6.75;;;;;;;22.25;35.00;102068.81;5113042;28;20031;-79
2021/06/27 03:22:40;;;;;;;12.88;6.30;;;;;;;22.22;34.92;102070.34;5112998;28;20077;-80
2021/06/27 03:25:07;;;;;;;8.45;5.03;;;;;;;22.23;35.01;102065.59;5112976;28;20023;-79
2021/06/27 03:27:32;;;;;;;9.30;5.13;;;;;;;22.21;35.14;102056.78;5094713;28;20530;-80
2021/06/27 03:29:58;;;;;;;7.60;5.38;;;;;;;22.22;35.05;102058.38;5094662;28;20107;-79
2021/06/27 03:32:24;;;;;;;7.82;5.00;;;;;;;22.25;35.11;102060.47;5094603;28;20126;-79
2021/06/27 03:34:50;;;;;;;9.50;4.90;;;;;;;22.26;35.27;102062.06;5094690;28;20039;-80
2021/06/27 03:37:15;;;;;;;8.90;5.05;;;;;;;22.28;35.23;102066.09;5094495;28;20147;-79
2021/06/27 03:39:41;;;;;;;10.00;5.30;;;;;;;22.30;35.16;102071.34;5097396;28;20026;-80
2021/06/27 03:42:07;;;;;;;8.68;5.50;;;;;;;22.27;35.38;102066.47;5117017;28;20032;-79
2021/06/27 03:44:33;;;;;;;7.75;4.90;;;;;;;22.28;35.19;102063.31;5116930;28;20028;-79
2021/06/27 03:47:00;;;;;;;8.55;4.70;;;;;;;22.21;35.42;102060.34;5116891;28;20027;-79
2021/06/27 03:49:25;;;;;;;8.48;5.22;;;;;;;22.20;35.21;102055.16;5116738;28;20023;-79
2021/06/27 03:51:51;;;;;;;8.65;4.85;;;;;;;22.14;35.16;102068.53;5098419;28;20031;-79
2021/06/27 03:54:17;;;;;;;9.02;4.80;;;;;;;22.10;35.12;102062.91;5116760;28;20505;-79
2021/06/27 03:56:43;;;;;;;11.02;4.75;;;;;;;22.04;35.05;102061.50;5116589;28;20035;-79
2021/06/27 03:59:09;;;;;;;8.27;5.28;;;;;;;22.03;34.88;102057.13;5116629;28;20031;-79
2021/06/27 04:01:35;;;;;;;15.70;6.15;;;;;;;22.01;34.82;102056.69;5116570;28;20028;-79
2021/06/27 04:04:02;;;;;;;15.00;5.32;;;;;;;22.00;34.96;102057.84;5116469;28;20032;-79
2021/06/27 04:06:28;;;;;;;10.68;5.50;;;;;;;21.88;35.08;102055.13;5116539;28;20027;-79
2021/06/27 04:08:54;;;;;;;6.60;4.65;;;;;;;21.84;34.99;102057.84;5116406;28;20107;-79
2021/06/27 04:11:19;;;;;;;11.95;5.35;;;;;;;21.83;35.08;102063.75;5097707;28;20035;-79
2021/06/27 04:13:45;;;;;;;12.23;6.03;;;;;;;21.77;35.25;102067.97;5098153;28;20114;-79
2021/06/27 04:16:11;;;;;;;7.43;5.13;;;;;;;21.72;35.32;102068.22;5097989;28;20030;-79
2021/06/27 04:18:37;;;;;;;11.75;5.68;;;;;;;21.74;35.31;102065.91;5097466;28;20062;-80
2021/06/27 04:21:05;;;;;;;7.90;4.80;;;;;;;21.76;35.18;102069.94;5097898;28;20420;-79
2021/06/27 04:23:32;;;;;;;9.57;4.95;;;;;;;21.78;35.34;102061.25;5097817;28;20389;-80
2021/06/27 04:25:58;;;;;;;6.13;4.60;;;;;;;21.81;35.23;102055.75;5097817;28;20469;-80
2021/06/27 04:28:24;;;;;;;11.82;6.05;;;;;;;21.82;35.28;102062.94;5116126;28;20084;-80
2021/06/27 04:30:50;;;;;;;9.35;6.03;;;;;;;21.78;35.50;102061.25;5116120;28;20028;-79
2021/06/27 04:33:16;;;;;;;11.80;6.38;;;;;;;21.87;35.33;102056.31;5115209;28;20047;-79
2021/06/27 04:35:42;;;;;;;18.92;6.75;;;;;;;21.88;35.20;102050.38;5087325;28;20074;-80
2021/06/27 04:38:10;;;;;;;9.98;5.65;;;;;;;21.90;35.42;102058.38;5077142;28;20028;-81
2021/06/27 04:40:36;;;;;;;12.95;5.78;;;;;;;21.92;35.26;102053.28;5095469;28;20436;-79
2021/06/27 04:43:03;;;;;;;11.30;5.55;;;;;;;21.92;35.26;102055.25;5095420;28;20035;-79
2021/06/27 04:45:29;;;;;;;8.90;5.25;;;;;;;21.81;35.39;102052.97;5095410;28;20501;-80
2021/06/27 04:47:54;;;;;;;10.20;5.32;;;;;;;21.77;35.32;102049.31;5095317;28;20036;-80
2021/06/27 04:50:20;;;;;;;12.20;6.25;;;;;;;21.75;35.57;102056.38;5094846;28;20028;-80
2021/06/27 04:52:51;;;;;;;11.00;5.70;;;;;;;21.80;35.56;102047.78;5095189;28;20119;-79
2021/06/27 04:55:17;;;;;;;13.15;6.82;;;;;;;21.93;35.45;102054.88;5076990;28;20025;-80
2021/06/27 04:57:43;;;;;;;11.00;6.47;;;;;;;21.86;35.53;102052.72;5095025;28;20035;-79
2021/06/27 05:00:09;;;;;;;11.63;7.07;;;;;;;21.90;35.72;102052.81;5095184;28;20032;-79
2021/06/27 05:02:34;;;;;;;13.93;6.65;;;;;;;21.94;35.83;102053.72;5094981;28;20470;-78
2021/06/27 05:05:01;;;;;;;9.90;6.00;;;;;;;22.02;35.92;102052.72;5095089;28;20394;-79
2021/06/27 05:07:26;;;;;;;10.07;5.65;;;;;;;22.13;35.91;102047.44;5094897;28;20031;-80
2021/06/27 05:09:54;;;;;;;10.90;6.55;;;;;;;22.18;35.92;102041.59;5094870;28;20028;-78
2021/06/27 05:12:19;;;;;;;12.60;6.78;;;;;;;22.25;36.05;102043.75;5094939;28;20378;-79
2021/06/27 05:14:45;;;;;;;12.82;6.53;;;;;;;22.25;35.99;102052.13;5094676;28;20032;-79
2021/06/27 05:17:10;;;;;;;11.68;7.25;;;;;;;22.23;36.25;102051.66;5094479;28;20063;-78
2021/06/27 05:19:36;;;;;;;13.15;7.75;;;;;;;22.41;36.16;102044.53;5094422;28;20065;-78
2021/06/27 05:22:02;;;;;;;12.02;7.50;;;;;;;22.33;36.46;102049.13;5076487;28;20055;-79
2021/06/27 05:24:27;;;;;;;13.35;8.13;;;;;;;22.53;36.21;102038.84;5094659;28;20024;-79
2021/06/27 05:26:53;;;;;;;12.60;9.27;;;;;;;22.64;36.59;102037.09;5076368;28;20032;-79
2021/06/27 05:29:18;;;;;;;13.98;8.25;;;;;;;22.82;36.20;102050.63;5094493;28;20032;-79
2021/06/27 05:31:44;;;;;;;13.95;7.15;;;;;;;23.05;36.05;102051.56;5094423;28;20042;-78
2021/06/27 05:34:09;;;;;;;9.00;6.85;;;;;;;23.05;36.52;102045.16;5094386;28;20032;-79
2021/06/27 05:36:39;;;;;;;10.10;5.80;;;;;;;23.21;36.21;102046.72;5094280;28;20107;-80
2021/06/27 05:39:08;;;;;;;11.90;7.28;;;;;;;23.35;36.71;102053.72;5076185;28;20051;-79
2021/06/27 05:41:35;;;;;;;9.75;5.57;;;;;;;23.32;36.78;102049.69;5094282;28;20032;-79
2021/06/27 05:44:01;;;;;;;7.80;4.47;;;;;;;23.52;36.65;102053.28;5076114;28;20024;-81
2021/06/27 05:46:27;;;;;;;9.75;5.80;;;;;;;23.66;36.44;102053.56;5094222;28;20024;-80
2021/06/27 05:48:52;;;;;;;8.88;5.38;;;;;;;23.80;36.55;102042.66;5075952;28;20135;-79
2021/06/27 05:51:18;;;;;;;9.18;5.70;;;;;;;23.88;36.39;102049.19;5075931;28;20077;-79
2021/06/27 05:53:44;;;;;;;11.20;6.07;;;;;;;23.99;36.33;102043.75;5094011;28;20032;-79
2021/06/27 05:56:10;;;;;;;12.00;5.72;;;;;;;24.00;36.38;102039.78;5075829;28;20032;-79
2021/06/27 05:58:37;;;;;;;7.55;5.47;;;;;;;24.07;36.53;102043.50;5093652;28;20032;-79
2021/06/27 06:01:06;;;;;;;7.22;5.30;;;;;;;24.16;36.19;102037.66;5093042;28;20039;-79
2021/06/27 06:03:33;;;;;;;8.40;4.88;;;;;;;24.23;36.29;102036.97;5093855;28;20076;-80
2021/06/27 06:05:58;;;;;;;9.80;5.25;;;;;;;24.29;36.18;102035.47;5093862;28;20035;-79
2021/06/27 06:08:24;;;;;;;6.80;4.72;;;;;;;24.36;36.53;102046.78;5075501;28;20027;-79
2021/06/27 06:10:50;;;;;;;8.88;5.22;;;;;;;24.53;36.17;102042.63;5075511;28;20020;-79
2021/06/27 06:13:15;;;;;;;6.95;3.92;;;;;;;24.69;36.36;102048.03;5093672;28;20032;-80
2021/06/27 06:15:41;;;;;;;9.07;4.57;;;;;;;24.65;36.49;102042.41;5075501;28;20108;-80
2021/06/27 06:18:06;;;;;;;6.75;4.00;;;;;;;24.72;36.37;102039.72;5057561;28;20045;-80
2021/06/27 06:20:32;;;;;;;20.13;5.47;;;;;;;24.75;36.57;102046.53;5053424;28;20052;-79
2021/06/27 06:22:58;;;;;;;9.40;4.57;;;;;;;24.73;36.94;102034.94;5053235;28;20387;-79
2021/06/27 06:25:23;;;;;;;9.27;5.10;;;;;;;24.82;36.91;102039.03;5054761;28;20096;-85
2021/06/27 06:27:49;;;;;;;12.48;4.60;;;;;;;24.82;36.78;102036.25;5075571;28;20056;-78
2021/06/27 06:30:15;;;;;;;9.80;3.83;;;;;;;24.83;36.94;102037.84;5073136;28;20378;-78
2021/06/27 06:32:41;;;;;;;6.45;4.13;;;;;;;24.90;36.99;102043.53;5073030;28;20020;-77
2021/06/27 06:35:07;;;;;;;6.93;4.00;;;;;;;24.97;36.68;102036.44;5071600;28;20029;-78
2021/06/27 06:37:33;;;;;;;6.85;3.65;;;;;;;24.95;36.58;102042.41;5072146;28;20118;-78
2021/06/27 06:39:58;;;;;;;6.65;4.03;;;;;;;25.10;36.43;102040.63;5073033;28;20024;-78
2021/06/27 06:42:24;;;;;;;8.07;4.30;;;;;;;25.13;36.65;102045.44;5072528;28;20055;-78
2021/06/27 06:44:49;;;;;;;8.07;3.95;;;;;;;25.15;36.44;102037.47;5071519;28;20548;-82
2021/06/27 06:47:15;;;;;;;5.80;4.03;;;;;;;25.22;36.19;102043.16;5071556;28;20028;-79
2021/06/27 06:49:41;;;;;;;7.43;4.00;;;;;;;25.27;36.01;102048.41;5072833;28;20020;-79
2021/06/27 06:52:06;;;;;;;10.50;4.18;;;;;;;25.37;36.21;102041.31;5072797;28;20024;-79
2021/06/27 06:54:32;;;;;;;6.38;4.03;;;;;;;25.39;36.10;102036.97;5072756;28;20074;-80
2021/06/27 06:56:58;;;;;;;8.13;4.10;;;;;;;25.40;35.96;102035.78;5072750;28;20090;-79
2021/06/27 06:59:23;;;;;;;6.20;4.15;;;;;;;25.49;35.90;102038.25;5072587;28;20252;-81
2021/06/27 07:01:49;;;;;;;7.00;4.00;;;;;;;25.42;35.85;102041.78;5076878;28;20032;-80
2021/06/27 07:04:15;;;;;;;5.18;3.33;;;;;;;25.46;35.70;102042.59;5072520;28;20021;-79
2021/06/27 07:06:40;;;;;;;5.75;3.83;;;;;;;25.50;35.55;102034.28;5088143;28;20058;-78
2021/06/27 07:09:06;;;;;;;6.28;3.60;;;;;;;25.55;35.74;102038.72;5072593;28;20028;-77
2021/06/27 07:11:31;;;;;;;5.15;2.90;;;;;;;25.69;35.43;102038.84;5072225;28;20025;-79
2021/06/27 07:13:57;;;;;;;7.18;3.60;;;;;;;25.76;35.04;102036.13;5072406;28;20106;-77
2021/06/27 07:16:22;;;;;;;5.68;3.10;;;;;;;25.94;35.03;101994.31;5072481;28;20039;-78
2021/06/27 07:18:48;;;;;;;8.40;3.10;;;;;;;25.90;34.87;102033.47;5113018;28;20381;-78
2021/06/27 07:21:15;;;;;;;6.57;3.45;;;;;;;26.12;35.00;102031.63;5111382;28;20131;-79
2021/06/27 07:23:41;;;;;;;6.18;3.30;;;;;;;26.16;34.32;102026.88;5094660;28;20561;-78
2021/06/27 07:26:07;;;;;;;5.30;3.15;;;;;;;26.36;34.65;102021.78;5090976;28;20115;-81
2021/06/27 07:28:32;;;;;;;6.30;3.83;;;;;;;26.54;34.24;102022.75;5108427;28;20059;-83
2021/06/27 07:30:59;;;;;;;8.43;3.20;;;;;;;26.63;34.27;102032.81;5105555;28;20031;-82
2021/06/27 07:33:25;;;;;;;8.07;3.35;;;;;;;26.64;34.08;102026.00;5119892;28;20397;-84
2021/06/27 07:35:51;;;;;;;5.22;2.90;;;;;;;26.54;33.94;102027.56;5118195;28;20096;-81
2021/06/27 07:38:16;;;;;;;4.28;2.80;;;;;;;26.68;33.92;102027.63;5099916;28;20485;-82
2021/06/27 07:40:42;;;;;;;6.57;3.05;;;;;;;26.65;33.47;102034.00;5130386;28;20043;-85
2021/06/27 07:43:08;;;;;;;8.07;2.90;;;;;;;26.57;33.57;102031.56;5097312;28;20036;-82
2021/06/27 07:45:34;;;;;;;9.18;3.92;;;;;;;26.49;33.52;102031.53;5091092;28;20087;-78
2021/06/27 07:48:00;;;;;;;7.75;3.60;;;;;;;26.64;33.46;102026.81;5110459;28;20413;-77
2021/06/27 07:50:25;;;;;;;5.72;2.90;;;;;;;26.62;33.50;102029.19;5109057;28;20104;-82
2021/06/27 07:52:51;;;;;;;5.25;3.42;;;;;;;26.63;33.30;102030.81;5109504;28;20454;-80
2021/06/27 07:55:16;;;;;;;9.40;3.00;;;;;;;26.58;33.49;102028.38;5109997;28;20545;-79
2021/06/27 07:57:42;;;;;;;9.07;3.63;;;;;;;26.69;33.45;102034.03;5090957;28;20104;-77
2021/06/27 08:00:10;;;;;;;5.75;3.50;;;;;;;26.67;33.35;102034.41;5108879;28;20046;-78
2021/06/27 08:02:37;;;;;;;6.32;3.40;;;;;;;26.79;33.28;102031.28;5091285;28;20051;-76
2021/06/27 08:05:04;;;;;;;7.43;3.97;;;;;;;26.66;33.54;102023.59;5105922;28;20060;-75
2021/06/27 08:07:30;;;;;;;5.45;3.58;;;;;;;26.77;33.41;102032.88;5109037;28;20035;-82
2021/06/27 08:09:56;;;;;;;7.10;3.15;;;;;;;26.94;33.47;102022.94;5109875;28;20039;-77
2021/06/27 08:12:21;;;;;;;5.90;3.92;;;;;;;26.83;32.91;102025.72;5108673;28;20114;-77
2021/06/27 08:14:47;;;;;;;5.57;2.83;;;;;;;26.99;33.04;102022.56;5110079;28;20035;-80
2021/06/27 08:17:13;;;;;;;9.57;3.72;;;;;;;26.83;33.11;102029.31;5110154;28;20456;-76
2021/06/27 08:19:38;;;;;;;7.45;3.28;;;;;;;27.00;33.15;102026.97;5109362;28;20035;-78
2021/06/27 08:22:04;;;;;;;8.15;3.45;;;;;;;27.07;33.03;102027.81;5110231;28;20023;-77
2021/06/27 08:24:30;;;;;;;6.10;3.33;;;;;;;27.04;32.96;102028.59;5091644;28;20036;-78
2021/06/27 08:26:56;;;;;;;5.13;3.10;;;;;;;27.20;32.74;102035.84;5116013;28;20611;-77
2021/06/27 08:29:22;;;;;;;5.93;3.30;;;;;;;27.28;32.99;102031.88;5116026;28;20393;-78
2021/06/27 08:31:47;;;;;;;4.68;3.40;;;;;;;27.41;32.64;102029.50;5116005;28;20028;-74
2021/06/27 08:34:13;;;;;;;7.85;4.28;;;;;;;27.46;32.86;102029.94;5115927;28;20468;-72
2021/06/27 08:36:39;;;;;;;7.25;3.47;;;;;;;27.29;32.74;102025.09;5115767;28;20031;-72
2021/06/27 08:39:06;;;;;;;7.03;3.00;;;;;;;27.45;32.49;102024.72;5097590;28;20035;-71
2021/06/27 08:41:32;;;;;;;5.40;3.42;;;;;;;27.55;32.31;102016.31;5116098;28;20377;-73
2021/06/27 08:44:00;;;;;;;7.05;3.60;;;;;;;27.78;32.41;102015.16;5115886;28;20028;-76
2021/06/27 08:46:26;;;;;;;4.97;3.50;;;;;;;27.80;32.29;102018.34;5115732;28;20027;-72
2021/06/27 08:48:53;;;;;;;6.35;2.90;;;;;;;27.87;32.23;102015.53;5115610;28;20042;-76
2021/06/27 08:51:18;;;;;;;6.72;4.03;;;;;;;27.88;32.05;102011.53;5114821;28;20402;-72
2021/06/27 08:53:44;;;;;;;8.18;4.00;;;;;;;28.20;31.81;102017.94;5094954;28;20031;-80
2021/06/27 08:56:11;;;;;;;7.85;4.35;;;;;;;28.21;31.84;102010.31;5113085;28;20081;-75
2021/06/27 08:58:45;;;;;;;5.88;3.13;;;;;;;28.28;31.66;101998.25;5112944;28;20027;-78
2021/06/27 09:01:14;;;;;;;4.95;3.78;;;;;;;28.41;31.44;101993.81;5112860;28;20030;-73
2021/06/27 09:03:39;;;;;;;10.05;3.70;;;;;;;28.27;31.76;101996.66;5113033;28;20019;-81
2021/06/27 09:06:06;;;;;;;6.70;3.28;;;;;;;28.41;31.73;102003.03;5112860;28;20020;-73
2021/06/27 09:08:32;;;;;;;5.70;3.70;;;;;;;28.56;31.57;102000.19;5096515;28;20496;-77
2021/06/27 09:11:18;;;;;;;6.70;3.70;;;;;;;28.59;30.99;101994.56;5114651;28;20027;-81
2021/06/27 09:13:44;;;;;;;6.72;3.85;;;;;;;28.39;31.38;101996.22;5114439;28;20106;-80
2021/06/27 09:16:18;;;;;;;8.25;4.15;;;;;;;28.23;31.62;101990.22;5114513;28;20530;-72
2021/06/27 09:18:44;;;;;;;5.50;3.35;;;;;;;28.39;31.29;101997.03;5114241;28;20043;-78
2021/06/27 09:21:10;;;;;;;4.53;3.53;;;;;;;28.43;31.16;101997.03;5114584;28;20019;-80
2021/06/27 09:23:38;;;;;;;14.40;4.20;;;;;;;28.48;31.14;101991.78;5114422;28;20027;-73
2021/06/27 09:26:05;;;;;;;4.28;3.42;;;;;;;28.70;30.89;101994.53;5114311;28;20051;-77
2021/06/27 09:28:48;;;;;;;6.82;3.83;;;;;;;28.84;30.65;101996.47;5096042;28;20437;-73
2021/06/27 09:31:43;;;;;;;4.65;3.22;;;;;;;28.65;30.18;101994.97;5114561;28;20031;-79
2021/06/27 09:34:13;;;;;;;6.00;3.67;;;;;;;28.95;30.50;101988.81;5096625;28;20443;-82
2021/06/27 09:36:45;;;;;;;6.65;2.95;;;;;;;28.62;31.33;101992.94;5115020;28;20028;-80
2021/06/27 09:39:16;;;;;;;5.70;3.72;;;;;;;28.57;31.33;101994.19;5114747;28;20386;-75
2021/06/27 09:41:54;;;;;;;5.32;3.40;;;;;;;28.55;31.53;101995.78;5114752;28;20023;-79
2021/06/27 09:44:22;;;;;;;6.30;3.38;;;;;;;28.56;31.33;101994.56;5114577;28;20024;-71
2021/06/27 09:46:55;;;;;;;6.57;4.07;;;;;;;28.78;31.37;101998.91;5114539;28;20015;-72
2021/06/27 09:49:26;;;;;;;6.60;3.78;;;;;;;28.77;30.97;101996.50;5114571;28;20062;-72
2021/06/27 09:51:56;;;;;;;6.82;4.20;;;;;;;28.90;30.95;101986.41;5114473;28;20047;-71
2021/06/27 09:54:26;;;;;;;7.25;3.80;;;;;;;28.79;30.79;101999.69;5114155;28;20028;-79
2021/06/27 09:56:52;;;;;;;8.40;3.90;;;;;;;28.92;30.93;101992.44;5114301;28;20051;-79
2021/06/27 09:59:22;;;;;;;5.25;3.25;;;;;;;29.11;31.03;101988.34;5114225;28;20024;-72
2021/06/27 10:01:48;;;;;;;4.97;3.22;;;;;;;28.92;30.64;101990.44;5114330;28;20034;-76
2021/06/27 10:04:27;;;;;;;6.22;3.75;;;;;;;28.84;30.61;101990.84;5114289;28;20032;-79
2021/06/27 10:06:55;;;;;;;7.30;3.58;;;;;;;28.91;31.16;101994.47;5114343;28;20112;-80
2021/06/27 10:09:24;;;;;;;7.03;3.95;;;;;;;28.94;30.99;101990.00;5095877;28;20032;-75
2021/06/27 10:12:00;;;;;;;8.23;4.45;;;;;;;28.91;30.95;101985.22;5095655;28;20020;-72
2021/06/27 10:14:50;;;;;;;8.52;3.95;;;;;;;28.85;30.76;101987.63;5095855;28;20072;-73
2021/06/27 10:17:22;;;;;;;5.10;3.75;;;;;;;28.79;31.20;101988.44;5113238;28;20615;-72
2021/06/27 10:19:48;;;;;;;5.47;3.40;;;;;;;29.02;31.13;101974.72;5113905;28;20050;-73
2021/06/27 10:22:14;;;;;;;6.53;4.85;;;;;;;28.94;30.74;101982.41;5113868;28;20047;-73
2021/06/27 10:24:40;;;;;;;7.22;3.78;;;;;;;29.44;29.78;101979.25;5114093;28;20410;-73
2021/06/27 10:27:08;;;;;;;9.15;3.67;;;;;;;29.54;29.89;101975.56;5113784;28;20066;-80
2021/06/27 10:29:38;;;;;;;8.38;4.03;;;;;;;29.45;30.40;101985.69;5113730;28;20126;-78
2021/06/27 10:32:03;;;;;;;;;;;;;;;29.54;30.07;101988.84;5114516;28;20023;-72
2021/06/27 10:34:29;;;;;;;5.32;3.58;;;;;;;29.57;30.06;101982.41;5113885;28;19912;-73
2021/06/27 10:37:03;;;;;;;6.43;4.03;;;;;;;29.36;29.95;101980.53;5113595;28;20355;-73
2021/06/27 10:39:29;;;;;;;6.38;4.32;;;;;;;29.21;30.08;101985.44;5113663;28;20474;-74
2021/06/27 10:42:00;;;;;;;6.85;3.92;;;;;;;28.93;30.65;101977.16;5113444;28;20125;-73
2021/06/27 10:44:28;;;;;;;6.20;3.63;;;;;;;28.83;30.61;101986.44;5113543;28;20043;-79
2021/06/27 10:46:59;;;;;;;6.82;4.65;;;;;;;29.13;30.75;101986.69;5113248;28;20020;-73
2021/06/27 10:49:31;;;;;;;9.20;5.40;;;;;;;29.36;30.25;101986.16;5113461;28;20020;-73
2021/06/27 10:52:01;;;;;;;6.75;4.18;;;;;;;29.65;29.74;101986.78;5113248;28;20019;-76
2021/06/27 10:54:37;;;;;;;9.48;5.03;;;;;;;29.53;29.79;101979.63;5113410;28;20362;-77
2021/06/27 10:57:09;;;;;;;6.25;4.18;;;;;;;29.56;30.03;101989.28;5113314;28;20028;-74
2021/06/27 10:59:38;;;;;;;10.02;4.30;;;;;;;29.28;30.06;101985.41;5113220;28;20026;-72
2021/06/27 11:02:18;;;;;;;6.35;4.10;;;;;;;29.12;30.12;101982.28;5094888;28;20452;-76
2021/06/27 11:04:44;;;;;;;8.18;4.35;;;;;;;29.08;30.22;101978.69;5113300;28;20020;-75
2021/06/27 11:07:32;;;;;;;6.78;4.55;;;;;;;28.97;30.39;101977.97;5113195;28;20066;-80
2021/06/27 11:10:19;;;;;;;6.18;4.03;;;;;;;29.05;30.84;101964.66;5113178;28;20023;-77
2021/06/27 11:13:00;;;;;;;9.35;4.65;;;;;;;28.98;30.58;101965.50;5113134;28;20028;-79
2021/06/27 11:15:27;;;;;;;6.60;4.35;;;;;;;29.13;30.80;101957.75;5113128;28;20449;-80
2021/06/27 11:17:55;;;;;;;9.18;4.47;;;;;;;29.25;30.81;101960.09;5112682;28;20058;-78
2021/06/27 11:20:22;;;;;;;11.10;4.97;;;;;;;29.48;30.57;101960.34;5094835;28;20498;-75
2021/06/27 11:22:49;;;;;;;5.78;4.30;;;;;;;29.44;30.33;101959.56;5094750;28;20024;-73
2021/06/27 11:25:35;;;;;;;5.40;4.32;;;;;;;29.62;30.24;101961.44;5094491;28;20016;-72